CYW weather

Captain Rogelio Castillo National Airport
Celaya, Guanajuato, Mexico

Public forecast

Using degrees Celsius for public forecast. Weather courtesy of forecast.io.

Closest aviation weather report (METAR) to Captain Rogelio Castillo National Airport

Report is more than 6 hours old.

Closest report is Rancho Medio Sitio Airport, 33.6 nm (62.2 km) NW. Retrieved 2013/09/22 00:30 UTC (7 years ago):

MMGT 220030Z 21010KT 9999 SCT014 BKN017

Closest aviation forecast (TAF) to Captain Rogelio Castillo National Airport

Forecast is more than 6 hours old.

Closest forecast is QuerĂ©taro Intercontinental Airport, 39.6 nm (73.4 km) E. Retrieved 2020/05/26 06:48 UTC (10 hours ago):

TAF MMQT 260441Z 2606/2706 34005KT P6SM SKC FM261800 28010KT P6SM SCT220 BECMG 2701/2702 10005KT